Time;durP1;ratioP1;P1;durP2;ratioP2;P2;SDS_P1;SDS_P2;PMS_P1;PMS_P2;Temp;Humidity;BMP_temperature;BMP_pressure;BME280_temperature;BME280_humidity;BME280_pressure;Samples;Min_cycle;Max_cycle;Signal;HPM_P1;HPM_P2
2021/10/31 00:00:48;;;;;;;25.70;14.73;;;;;;;8.02;53.00;98509.91;5074811;28;20455;-66
2021/10/31 00:03:16;;;;;;;27.45;15.38;;;;;;;7.97;53.04;98515.38;5056850;28;20029;-66
2021/10/31 00:05:42;;;;;;;22.83;13.02;;;;;;;7.96;53.00;98516.47;5074670;28;20698;-66
2021/10/31 00:08:07;;;;;;;24.35;13.43;;;;;;;7.89;53.38;98514.03;5074525;28;20028;-66
2021/10/31 00:10:32;;;;;;;22.95;12.95;;;;;;;7.84;53.38;98513.25;5074508;28;20052;-66
2021/10/31 00:12:58;;;;;;;25.98;12.20;;;;;;;7.75;53.42;98522.00;5074579;28;20392;-66
2021/10/31 00:15:23;;;;;;;20.58;12.00;;;;;;;7.68;53.77;98516.00;5074227;28;20031;-66
2021/10/31 00:17:49;;;;;;;22.92;11.65;;;;;;;7.62;53.72;98514.38;5074576;28;20108;-66
2021/10/31 00:20:14;;;;;;;21.58;12.95;;;;;;;7.49;53.88;98517.69;5074896;28;20032;-66
2021/10/31 00:22:44;;;;;;;27.08;14.35;;;;;;;7.42;54.05;98510.59;5074400;28;20070;-66
2021/10/31 00:25:10;;;;;;;21.75;12.82;;;;;;;7.36;54.17;98511.69;5074461;28;20032;-66
2021/10/31 00:27:36;;;;;;;24.30;14.20;;;;;;;7.29;54.41;98502.94;5074174;28;20469;-66
2021/10/31 00:30:03;;;;;;;27.65;15.77;;;;;;;7.29;55.12;98503.78;5074138;28;20020;-66
2021/10/31 00:32:28;;;;;;;24.45;14.48;;;;;;;7.35;55.30;98504.59;5074215;28;20020;-65
2021/10/31 00:34:53;;;;;;;20.55;11.73;;;;;;;7.45;55.27;98510.03;5074136;28;20020;-65
2021/10/31 00:37:19;;;;;;;17.88;10.63;;;;;;;7.55;55.55;98516.56;5074171;28;20093;-66
2021/10/31 00:39:44;;;;;;;21.08;12.02;;;;;;;7.66;55.42;98514.66;5074030;28;20469;-65
2021/10/31 00:42:09;;;;;;;20.85;12.73;;;;;;;7.68;55.33;98513.28;5073941;28;20035;-66
2021/10/31 00:44:35;;;;;;;23.48;13.57;;;;;;;7.69;55.33;98516.84;5073980;28;20021;-66
2021/10/31 00:47:00;;;;;;;20.83;11.32;;;;;;;7.65;55.86;98519.28;5072883;28;20020;-66
2021/10/31 00:49:26;;;;;;;18.40;10.35;;;;;;;7.60;55.55;98520.13;5074037;28;20027;-66
2021/10/31 00:51:52;;;;;;;18.73;10.32;;;;;;;7.55;55.41;98516.56;5073853;28;20028;-66
2021/10/31 00:54:17;;;;;;;19.67;10.25;;;;;;;7.52;55.43;98523.41;5073820;28;20082;-66
2021/10/31 00:56:42;;;;;;;17.50;10.55;;;;;;;7.48;55.87;98519.56;5082291;28;20472;-65
2021/10/31 00:59:08;;;;;;;19.33;11.40;;;;;;;7.45;55.81;98515.50;5074219;28;20027;-64
2021/10/31 01:01:34;;;;;;;18.75;11.50;;;;;;;7.43;55.76;98511.38;5076961;28;20028;-66
2021/10/31 01:04:00;;;;;;;19.73;12.13;;;;;;;7.42;55.61;98521.50;5079798;28;20404;-66
2021/10/31 01:06:50;;;;;;;21.88;14.45;;;;;;;7.35;55.97;98518.22;5086751;28;20115;-66
2021/10/31 01:09:41;;;;;;;23.55;14.10;;;;;;;7.30;56.00;98516.34;5080366;28;20028;-65
2021/10/31 01:12:19;;;;;;;23.60;13.35;;;;;;;7.26;56.09;98517.97;5060270;28;20063;-65
2021/10/31 01:15:33;;;;;;;18.33;11.48;;;;;;;7.18;56.04;98515.78;5075065;28;20060;-65
2021/10/31 01:18:19;;;;;;;17.52;10.00;;;;;;;7.12;55.99;98527.78;4987762;28;20129;-66
2021/10/31 01:21:06;;;;;;;20.45;11.32;;;;;;;7.05;56.41;98524.47;5088245;28;20422;-66
2021/10/31 01:24:06;;;;;;;22.80;12.48;;;;;;;7.06;57.14;98523.41;5092997;28;20024;-66
2021/10/31 01:26:35;;;;;;;22.67;14.60;;;;;;;7.19;57.73;98516.56;5079370;28;20060;-66
2021/10/31 01:29:03;;;;;;;15.57;10.38;;;;;;;7.27;57.58;98518.75;5079831;28;20052;-66
2021/10/31 01:32:06;;;;;;;17.20;11.10;;;;;;;7.38;57.75;98508.66;5079042;28;20036;-66
2021/10/31 01:34:49;;;;;;;22.73;12.18;;;;;;;7.44;57.47;98508.41;5087712;28;20056;-66
2021/10/31 01:37:28;;;;;;;21.85;11.13;;;;;;;7.51;57.58;98504.59;5068238;28;20035;-66
2021/10/31 01:40:05;;;;;;;19.38;10.95;;;;;;;7.55;57.21;98516.56;5057638;28;20021;-66
2021/10/31 01:42:40;;;;;;;17.13;10.05;;;;;;;7.55;57.68;98517.38;5061364;28;20029;-66
2021/10/31 01:45:20;;;;;;;20.90;11.95;;;;;;;7.53;57.33;98510.59;5063686;28;20024;-67
2021/10/31 01:48:05;;;;;;;21.67;12.05;;;;;;;7.48;57.31;98510.59;5082707;28;20496;-67
2021/10/31 01:50:33;;;;;;;23.60;11.60;;;;;;;7.42;57.07;98517.94;5070131;28;20123;-66
2021/10/31 01:53:08;;;;;;;17.25;10.57;;;;;;;7.35;57.74;98523.69;5083293;28;20032;-66
2021/10/31 01:55:40;;;;;;;20.77;11.98;;;;;;;7.30;57.09;98513.59;5062862;28;20078;-66
2021/10/31 01:58:08;;;;;;;19.10;11.18;;;;;;;7.22;57.24;98522.31;5075426;28;20404;-66
2021/10/31 02:00:36;;;;;;;19.17;11.95;;;;;;;7.12;57.40;98520.41;5065374;28;20058;-66
2021/10/31 02:03:02;;;;;;;20.33;11.38;;;;;;;7.07;57.61;98525.88;5079196;28;20055;-66
2021/10/31 02:05:31;;;;;;;20.15;12.30;;;;;;;6.97;57.10;98521.19;5075077;28;20056;-66
2021/10/31 02:08:03;;;;;;;20.80;12.55;;;;;;;6.87;57.17;98523.09;5083935;28;20024;-67
2021/10/31 02:10:30;;;;;;;28.17;14.70;;;;;;;6.68;57.94;98524.44;5076509;28;20033;-67
2021/10/31 02:12:56;;;;;;;29.65;16.17;;;;;;;6.54;57.72;98523.28;5083599;28;20027;-66
2021/10/31 02:15:23;;;;;;;24.58;14.40;;;;;;;6.42;58.89;98522.72;5083201;28;20024;-66
2021/10/31 02:17:52;;;;;;;25.58;15.23;;;;;;;6.40;58.52;98526.53;5068504;28;20108;-66
2021/10/31 02:20:19;;;;;;;30.02;17.48;;;;;;;6.46;58.44;98519.19;5055003;28;20051;-66
2021/10/31 02:23:03;;;;;;;26.33;15.57;;;;;;;6.51;58.77;98515.69;5055429;28;20820;-67
2021/10/31 02:25:31;;;;;;;27.60;15.88;;;;;;;6.55;58.80;98517.59;5082885;28;20036;-67
2021/10/31 02:27:56;;;;;;;27.58;14.98;;;;;;;6.59;58.32;98519.78;5070797;28;20056;-67
2021/10/31 02:30:22;;;;;;;24.38;14.23;;;;;;;6.60;58.60;98522.22;5066362;28;20052;-67
2021/10/31 02:32:49;;;;;;;27.05;15.02;;;;;;;6.59;58.66;98519.78;5064658;28;20032;-67
2021/10/31 02:35:15;;;;;;;25.83;14.75;;;;;;;6.54;58.43;98532.31;5065955;28;20032;-68
2021/10/31 02:37:42;;;;;;;25.35;15.02;;;;;;;6.47;58.23;98526.28;5030292;28;20036;-67
2021/10/31 02:40:10;;;;;;;23.15;14.05;;;;;;;6.44;58.73;98528.72;5058223;28;20024;-67
2021/10/31 02:42:36;;;;;;;23.63;12.63;;;;;;;6.46;58.78;98515.66;5035753;28;20189;-68
2021/10/31 02:45:03;;;;;;;18.40;10.13;;;;;;;6.60;59.93;98511.31;5059722;28;20031;-68
2021/10/31 02:47:36;;;;;;;19.35;11.55;;;;;;;6.75;59.91;98499.63;5064469;28;20845;-67
2021/10/31 02:50:04;;;;;;;20.27;11.60;;;;;;;6.91;59.61;98495.03;5064306;28;20481;-68
2021/10/31 02:53:03;;;;;;;20.42;12.27;;;;;;;7.06;59.81;98488.78;5064353;28;20032;-68
2021/10/31 02:55:36;;;;;;;19.65;11.27;;;;;;;7.21;59.67;98478.94;5049769;28;20040;-67
2021/10/31 02:58:19;;;;;;;18.35;10.90;;;;;;;7.34;59.56;98477.56;5063630;28;20385;-67
2021/10/31 03:00:45;;;;;;;21.48;12.75;;;;;;;7.47;59.85;98476.19;5056568;28;20024;-68
2021/10/31 03:03:12;;;;;;;22.00;12.45;;;;;;;7.55;59.21;98481.06;5057937;28;20123;-68
2021/10/31 03:05:38;;;;;;;24.15;13.27;;;;;;;7.61;59.03;98488.16;5057420;28;20131;-68
2021/10/31 03:08:03;;;;;;;23.63;13.38;;;;;;;7.63;59.09;98496.09;5043645;28;20091;-68
2021/10/31 03:10:29;;;;;;;37.70;20.10;;;;;;;7.62;58.69;98499.91;5064525;28;20069;-67
2021/10/31 03:12:55;;;;;;;32.15;17.52;;;;;;;7.55;58.67;98501.00;5067407;28;20024;-67
2021/10/31 03:15:23;;;;;;;45.22;24.17;;;;;;;7.41;58.33;98511.69;5067639;28;20040;-68
2021/10/31 03:17:49;;;;;;;31.85;18.35;;;;;;;7.26;58.61;98519.84;5067479;28;20448;-68
2021/10/31 03:20:14;;;;;;;32.85;18.48;;;;;;;7.14;58.30;98518.22;5066566;28;20036;-68
2021/10/31 03:22:40;;;;;;;31.83;17.52;;;;;;;6.98;58.57;98519.31;5058548;28;20024;-68
2021/10/31 03:25:06;;;;;;;29.52;16.08;;;;;;;6.92;58.89;98525.84;5058021;28;20028;-67
2021/10/31 03:27:31;;;;;;;30.92;15.88;;;;;;;6.88;58.89;98530.19;5065180;28;20128;-68
2021/10/31 03:29:57;;;;;;;30.10;16.38;;;;;;;6.85;58.57;98531.56;5066859;28;20604;-67
2021/10/31 03:32:23;;;;;;;29.13;15.27;;;;;;;6.82;58.55;98529.38;5066744;28;20029;-67
2021/10/31 03:34:49;;;;;;;28.67;15.55;;;;;;;6.81;58.68;98534.00;5066430;28;20032;-67
2021/10/31 03:37:14;;;;;;;25.23;13.90;;;;;;;6.78;58.91;98522.81;5066328;28;20414;-68
2021/10/31 03:39:40;;;;;;;24.98;14.45;;;;;;;6.75;58.47;98524.16;5066764;28;20074;-67
2021/10/31 03:42:06;;;;;;;23.65;12.88;;;;;;;6.72;58.94;98527.44;5063257;28;20024;-67
2021/10/31 03:44:36;;;;;;;24.08;12.63;;;;;;;6.68;58.85;98529.88;5042476;28;20020;-68
2021/10/31 03:47:03;;;;;;;26.80;15.75;;;;;;;6.63;58.85;98526.34;5040638;28;20086;-67
2021/10/31 03:49:30;;;;;;;26.75;15.15;;;;;;;6.55;58.50;98533.94;5047347;28;20035;-67
2021/10/31 03:51:55;;;;;;;26.40;15.95;;;;;;;6.51;58.73;98530.09;5066631;28;20031;-67
2021/10/31 03:54:20;;;;;;;28.00;15.35;;;;;;;6.46;59.06;98529.28;5067228;28;20024;-67
2021/10/31 03:56:46;;;;;;;27.80;15.25;;;;;;;6.37;58.92;98535.25;5066283;28;20248;-67
2021/10/31 03:59:12;;;;;;;28.63;15.02;;;;;;;6.28;58.91;98533.31;5067004;28;20009;-67
2021/10/31 04:01:38;;;;;;;31.65;14.77;;;;;;;6.18;58.85;98532.16;5066089;28;20031;-67
2021/10/31 04:04:03;;;;;;;27.83;14.68;;;;;;;6.09;59.11;98531.03;5056362;28;20029;-67
2021/10/31 04:06:29;;;;;;;27.65;14.07;;;;;;;6.03;59.76;98530.19;5056650;28;20153;-67
2021/10/31 04:08:55;;;;;;;22.38;13.90;;;;;;;5.97;59.60;98534.75;5061544;28;20020;-67
2021/10/31 04:11:21;;;;;;;21.27;12.77;;;;;;;5.96;60.08;98540.47;5064819;28;20036;-67
2021/10/31 04:13:46;;;;;;;24.42;12.43;;;;;;;5.96;60.34;98541.28;5046014;28;20017;-67
2021/10/31 04:16:12;;;;;;;22.33;12.07;;;;;;;5.97;60.46;98548.34;5064758;28;20025;-67
2021/10/31 04:18:37;;;;;;;24.88;11.93;;;;;;;5.97;59.91;98548.34;5066114;28;20027;-67
2021/10/31 04:21:02;;;;;;;24.25;13.50;;;;;;;6.02;60.20;98552.22;5065629;28;20025;-67
2021/10/31 04:23:28;;;;;;;24.10;12.68;;;;;;;6.05;60.42;98565.31;5064912;28;20512;-67
2021/10/31 04:25:56;;;;;;;25.73;12.15;;;;;;;6.06;59.99;98569.69;5057411;28;20662;-67
2021/10/31 04:28:23;;;;;;;24.50;13.52;;;;;;;6.06;60.10;98575.13;5056713;28;20753;-67
2021/10/31 04:30:49;;;;;;;20.92;11.13;;;;;;;6.04;59.65;98580.00;5063226;28;20028;-67
2021/10/31 04:33:14;;;;;;;22.25;12.48;;;;;;;6.02;60.34;98588.47;5066226;28;20050;-67
2021/10/31 04:35:40;;;;;;;22.48;12.98;;;;;;;5.95;60.03;98591.34;5065950;28;20056;-67
2021/10/31 04:38:11;;;;;;;29.25;14.93;;;;;;;5.81;60.36;98593.72;5066835;28;20477;-67
2021/10/31 04:40:39;;;;;;;36.50;17.35;;;;;;;5.68;60.22;98590.63;5065998;28;20052;-67
2021/10/31 04:43:10;;;;;;;29.08;15.32;;;;;;;5.56;60.38;98585.38;5048941;28;20025;-67
2021/10/31 04:45:35;;;;;;;24.52;13.00;;;;;;;5.46;60.80;98588.84;5060849;28;20104;-67
2021/10/31 04:48:01;;;;;;;25.40;13.57;;;;;;;5.36;60.52;98589.56;5057273;28;20034;-67
2021/10/31 04:50:26;;;;;;;24.77;13.57;;;;;;;5.29;60.77;98591.69;5059012;28;20012;-66
2021/10/31 04:52:51;;;;;;;22.75;12.98;;;;;;;5.22;61.18;98597.31;5066892;28;20910;-67
2021/10/31 04:55:17;;;;;;;21.08;12.07;;;;;;;5.18;60.99;98593.47;5065790;28;20189;-67
2021/10/31 04:57:42;;;;;;;18.75;11.25;;;;;;;5.14;60.67;98592.34;5049397;28;20067;-67
2021/10/31 05:00:08;;;;;;;19.08;11.35;;;;;;;5.09;61.65;98592.31;5065215;28;20021;-67
2021/10/31 05:02:34;;;;;;;18.50;11.55;;;;;;;5.03;60.89;98584.09;5046243;28;20437;-67
2021/10/31 05:04:59;;;;;;;20.92;12.18;;;;;;;5.00;61.90;98581.06;5065298;28;20105;-67
2021/10/31 05:07:25;;;;;;;19.25;12.63;;;;;;;4.96;61.16;98582.66;5056277;28;20036;-67
2021/10/31 05:09:51;;;;;;;22.35;12.77;;;;;;;4.93;61.74;98589.44;5056125;28;20195;-67
2021/10/31 05:12:17;;;;;;;22.10;13.40;;;;;;;4.91;61.52;98589.66;5062079;28;20470;-67
2021/10/31 05:14:43;;;;;;;24.70;13.93;;;;;;;4.92;61.69;98590.50;5066971;28;20028;-67
2021/10/31 05:17:09;;;;;;;24.73;13.43;;;;;;;4.93;62.29;98594.88;5064776;28;20521;-67
2021/10/31 05:19:34;;;;;;;21.75;12.95;;;;;;;4.90;61.67;98588.03;5064832;28;20024;-67
2021/10/31 05:21:59;;;;;;;19.25;11.25;;;;;;;4.90;62.32;98590.75;5064316;28;20515;-67
2021/10/31 05:24:25;;;;;;;20.83;11.60;;;;;;;4.89;61.70;98585.59;5084202;28;20055;-67
2021/10/31 05:26:50;;;;;;;19.17;11.25;;;;;;;4.86;61.74;98586.09;5077837;28;20024;-67
2021/10/31 05:29:17;;;;;;;20.30;11.57;;;;;;;4.90;62.22;98579.06;5055546;28;20148;-67
2021/10/31 05:31:42;;;;;;;19.55;11.20;;;;;;;4.93;62.02;98573.13;5068289;28;20079;-67
2021/10/31 05:34:07;;;;;;;21.52;11.10;;;;;;;4.99;62.63;98579.44;5083190;28;20119;-67
2021/10/31 05:36:35;;;;;;;20.77;13.43;;;;;;;5.07;62.67;98573.53;5068908;28;20388;-67
2021/10/31 05:39:00;;;;;;;22.98;13.80;;;;;;;5.14;62.70;98571.44;5082307;28;20030;-67
2021/10/31 05:41:25;;;;;;;18.83;12.15;;;;;;;5.27;62.64;98586.50;5072526;28;20028;-67
2021/10/31 05:43:51;;;;;;;21.25;11.10;;;;;;;5.36;62.42;98579.50;5084565;28;20066;-68
2021/10/31 05:46:16;;;;;;;16.67;10.30;;;;;;;5.47;62.04;98585.03;5066503;28;20473;-67
2021/10/31 05:48:42;;;;;;;17.70;10.88;;;;;;;5.51;62.25;98586.13;5058816;28;20031;-66
2021/10/31 05:51:08;;;;;;;18.80;10.70;;;;;;;5.57;62.21;98589.75;5038319;28;20077;-67
2021/10/31 05:53:33;;;;;;;22.80;12.30;;;;;;;5.64;62.21;98591.16;5072040;28;20016;-67
2021/10/31 05:55:58;;;;;;;28.05;12.10;;;;;;;5.72;62.15;98581.66;5071811;28;20020;-67
2021/10/31 05:58:24;;;;;;;27.58;13.20;;;;;;;5.80;62.14;98575.75;5078698;28;20028;-67
2021/10/31 06:00:49;;;;;;;23.63;12.13;;;;;;;5.88;61.70;98579.91;5092929;28;20107;-67
2021/10/31 06:03:15;;;;;;;23.13;12.43;;;;;;;5.99;61.98;98579.94;5092477;28;20036;-67
2021/10/31 06:05:43;;;;;;;20.75;11.57;;;;;;;6.08;61.77;98579.25;5092546;28;20028;-67
2021/10/31 06:08:14;;;;;;;21.17;11.32;;;;;;;6.18;61.90;98580.34;5074408;28;20093;-67
2021/10/31 06:10:39;;;;;;;21.52;13.18;;;;;;;6.33;61.46;98582.31;5072367;28;20029;-67
2021/10/31 06:13:05;;;;;;;23.38;13.57;;;;;;;6.47;61.78;98580.78;5054434;28;20027;-67
2021/10/31 06:15:30;;;;;;;26.98;15.48;;;;;;;6.57;61.59;98585.44;5072364;28;20027;-68
2021/10/31 06:17:56;;;;;;;30.08;16.67;;;;;;;6.67;61.75;98592.84;5087834;28;20495;-67
2021/10/31 06:20:21;;;;;;;31.30;17.40;;;;;;;6.70;61.15;98593.13;5092374;28;20032;-67
2021/10/31 06:22:46;;;;;;;46.78;24.05;;;;;;;6.75;61.52;98589.59;5092206;28;20032;-68
2021/10/31 06:25:12;;;;;;;46.72;26.50;;;;;;;6.82;61.33;98597.53;5092516;28;20039;-67
2021/10/31 06:27:38;;;;;;;39.63;22.20;;;;;;;6.91;61.33;98601.38;5079008;28;20029;-68
2021/10/31 06:30:04;;;;;;;36.55;19.40;;;;;;;7.01;61.44;98600.56;5072126;28;20029;-67
2021/10/31 06:32:30;;;;;;;26.40;14.38;;;;;;;7.17;61.41;98598.69;5072061;28;20032;-67
2021/10/31 06:34:55;;;;;;;23.40;14.43;;;;;;;7.31;61.45;98601.72;5078465;28;20357;-67
2021/10/31 06:37:20;;;;;;;25.30;14.10;;;;;;;7.46;61.08;98600.91;5092226;28;20032;-67
2021/10/31 06:39:46;;;;;;;23.33;12.93;;;;;;;7.64;61.11;98601.47;5092133;28;20024;-68
2021/10/31 06:42:11;;;;;;;30.00;15.60;;;;;;;7.79;60.91;98609.63;5092342;28;20468;-68
2021/10/31 06:44:37;;;;;;;33.63;15.63;;;;;;;7.94;60.54;98605.25;5078641;28;20036;-68
2021/10/31 06:47:02;;;;;;;35.20;16.17;;;;;;;8.07;60.45;98603.84;5095696;28;20400;-67
2021/10/31 06:49:28;;;;;;;39.10;19.00;;;;;;;8.18;60.14;98619.94;5096145;28;20031;-68
2021/10/31 06:51:54;;;;;;;50.75;22.38;;;;;;;8.27;60.02;98606.56;5096332;28;20103;-68
2021/10/31 06:54:20;;;;;;;65.97;23.55;;;;;;;8.35;59.43;98605.16;5092835;28;20116;-67
2021/10/31 06:56:45;;;;;;;52.55;18.83;;;;;;;8.43;59.36;98606.50;5076345;28;20077;-67
2021/10/31 06:59:11;;;;;;;41.03;18.85;;;;;;;8.53;59.35;98603.75;5075821;28;20488;-68
2021/10/31 07:01:36;;;;;;;28.10;15.35;;;;;;;8.62;59.12;98599.38;5079578;28;20036;-67
2021/10/31 07:04:03;;;;;;;23.25;14.45;;;;;;;8.72;59.04;98609.44;5075699;28;20453;-67
2021/10/31 07:06:28;;;;;;;23.17;13.48;;;;;;;8.82;58.74;98599.53;5075728;28;20060;-67
2021/10/31 07:08:54;;;;;;;30.08;15.80;;;;;;;8.92;58.75;98607.72;5075598;28;20056;-67
2021/10/31 07:11:19;;;;;;;32.03;16.85;;;;;;;9.02;58.13;98612.31;5081396;28;20044;-68
2021/10/31 07:13:45;;;;;;;34.95;15.63;;;;;;;9.10;58.22;98608.97;5095694;28;20081;-68
2021/10/31 07:16:10;;;;;;;37.83;15.85;;;;;;;9.16;58.06;98613.31;5095761;28;20019;-67
2021/10/31 07:18:35;;;;;;;46.03;16.75;;;;;;;9.22;57.91;98612.16;5095886;28;20468;-67
2021/10/31 07:21:01;;;;;;;45.05;16.25;;;;;;;9.30;57.78;98616.25;5092227;28;20020;-68
2021/10/31 07:23:26;;;;;;;34.47;14.57;;;;;;;9.37;57.52;98615.91;5075586;28;20032;-68
2021/10/31 07:25:52;;;;;;;26.30;11.40;;;;;;;9.45;56.85;98604.34;5075289;28;20031;-68
2021/10/31 07:28:18;;;;;;;19.25;10.88;;;;;;;9.56;56.67;98602.34;5075141;28;20085;-68
2021/10/31 07:30:43;;;;;;;15.27;8.88;;;;;;;9.65;56.88;98606.13;5075583;28;20043;-68
2021/10/31 07:33:08;;;;;;;17.45;9.55;;;;;;;9.75;56.02;98605.22;5095731;28;20161;-68
2021/10/31 07:35:34;;;;;;;13.75;9.13;;;;;;;9.86;56.46;98608.66;5095457;28;20032;-68
2021/10/31 07:37:59;;;;;;;17.95;9.82;;;;;;;9.97;55.82;98603.94;5095017;28;20036;-67
2021/10/31 07:40:25;;;;;;;19.05;10.82;;;;;;;10.05;55.68;98603.28;5095347;28;20456;-68
2021/10/31 07:42:51;;;;;;;18.75;10.07;;;;;;;10.12;56.23;98600.22;5076978;28;20486;-68
2021/10/31 07:45:16;;;;;;;14.30;9.38;;;;;;;10.22;55.56;98607.50;5075093;28;20495;-68
2021/10/31 07:47:42;;;;;;;16.10;10.40;;;;;;;10.31;54.72;98597.56;5078157;28;20016;-69
2021/10/31 07:50:09;;;;;;;21.92;10.77;;;;;;;10.38;55.54;98603.50;5058315;28;20021;-68
2021/10/31 07:52:35;;;;;;;17.88;9.70;;;;;;;10.48;54.61;98605.34;5081052;28;20060;-67
2021/10/31 07:55:03;;;;;;;18.98;9.90;;;;;;;10.55;55.17;98604.97;5084140;28;20051;-67
2021/10/31 07:57:31;;;;;;;21.00;11.82;;;;;;;10.62;53.65;98599.97;5080176;28;20031;-67
2021/10/31 07:59:57;;;;;;;21.60;12.77;;;;;;;10.69;54.69;98600.44;5080390;28;20017;-68
2021/10/31 08:02:22;;;;;;;22.60;11.50;;;;;;;10.75;53.36;98589.41;5079301;28;20017;-68
2021/10/31 08:04:47;;;;;;;18.13;9.68;;;;;;;10.80;53.32;98595.63;5074900;28;20100;-68
2021/10/31 08:07:13;;;;;;;24.23;12.27;;;;;;;10.87;53.27;98590.59;5087698;28;20480;-67
2021/10/31 08:09:39;;;;;;;15.52;9.57;;;;;;;10.95;52.54;98591.03;5113784;28;20373;-68
2021/10/31 08:12:06;;;;;;;18.40;10.77;;;;;;;11.02;52.90;98595.06;5113438;28;20020;-67
2021/10/31 08:14:31;;;;;;;18.33;11.30;;;;;;;11.09;51.52;98583.69;5114103;28;20027;-67
2021/10/31 08:16:56;;;;;;;16.23;9.48;;;;;;;11.15;52.19;98585.25;5114383;28;20020;-67
2021/10/31 08:19:24;;;;;;;18.08;10.77;;;;;;;11.21;52.36;98583.25;5113818;28;20084;-67
2021/10/31 08:21:52;;;;;;;20.42;11.07;;;;;;;11.31;51.88;98587.78;5114157;28;20032;-67
2021/10/31 08:24:17;;;;;;;20.65;11.60;;;;;;;11.37;51.51;98589.34;5113802;28;20090;-67
2021/10/31 08:26:43;;;;;;;19.10;10.45;;;;;;;11.42;50.84;98589.22;5113956;28;20026;-67
2021/10/31 08:29:10;;;;;;;20.30;12.10;;;;;;;11.48;51.38;98595.47;5106377;28;20041;-67
2021/10/31 08:31:40;;;;;;;24.20;11.95;;;;;;;11.54;50.88;98586.06;5081813;28;20020;-67
2021/10/31 08:34:05;;;;;;;19.45;11.50;;;;;;;11.58;50.92;98584.34;5083129;28;20024;-67
2021/10/31 08:36:31;;;;;;;22.70;12.00;;;;;;;11.67;50.81;98587.22;5086564;28;20020;-67
2021/10/31 08:38:57;;;;;;;24.33;12.02;;;;;;;11.76;49.40;98584.59;5082228;28;20020;-67
2021/10/31 08:41:24;;;;;;;21.40;11.38;;;;;;;11.80;49.80;98582.06;5081768;28;20020;-67
2021/10/31 08:43:52;;;;;;;17.75;10.00;;;;;;;11.86;48.74;98570.66;5083147;28;20024;-67
2021/10/31 08:46:18;;;;;;;21.17;10.57;;;;;;;11.95;49.03;98565.28;5084536;28;20016;-68
2021/10/31 08:48:45;;;;;;;17.17;9.45;;;;;;;12.01;48.14;98557.81;5078797;28;20028;-68
2021/10/31 08:51:11;;;;;;;18.25;9.35;;;;;;;12.06;48.40;98549.44;5073482;28;20524;-68
2021/10/31 08:53:37;;;;;;;17.80;9.23;;;;;;;12.11;48.17;98551.28;5055536;28;20116;-67
2021/10/31 08:56:05;;;;;;;16.80;8.98;;;;;;;12.20;47.74;98554.97;5073304;28;20052;-68
2021/10/31 08:58:30;;;;;;;19.27;9.40;;;;;;;12.30;45.80;98552.00;5073397;28;20021;-67
2021/10/31 09:00:56;;;;;;;16.85;9.48;;;;;;;12.35;46.91;98554.66;5073493;28;20031;-68
2021/10/31 09:03:22;;;;;;;28.50;15.77;;;;;;;12.43;46.14;98561.38;5071777;28;20833;-67
2021/10/31 09:05:47;;;;;;;20.67;11.60;;;;;;;12.49;46.37;98556.59;5100990;28;20030;-68
2021/10/31 09:08:12;;;;;;;22.15;10.98;;;;;;;12.54;45.71;98545.50;5112375;28;20099;-68
2021/10/31 09:10:38;;;;;;;19.90;10.32;;;;;;;12.61;45.80;98542.31;5112861;28;20027;-66
2021/10/31 09:13:05;;;;;;;16.33;9.27;;;;;;;12.66;46.44;98543.00;5112584;28;20419;-65
2021/10/31 09:15:32;;;;;;;19.02;11.35;;;;;;;12.74;46.37;98541.50;5112809;28;20027;-65
2021/10/31 09:18:00;;;;;;;28.85;17.77;;;;;;;12.85;44.84;98546.75;5087897;28;20033;-63
2021/10/31 09:20:27;;;;;;;16.95;9.20;;;;;;;12.94;44.29;98539.38;5081009;28;20161;-64
2021/10/31 09:22:55;;;;;;;13.13;8.02;;;;;;;12.99;44.96;98536.53;5081595;28;20127;-64
2021/10/31 09:25:22;;;;;;;30.85;15.95;;;;;;;13.05;44.91;98538.03;5080228;28;20036;-64
2021/10/31 09:27:48;;;;;;;21.30;11.38;;;;;;;13.15;44.85;98538.94;5081154;28;20028;-63
2021/10/31 09:30:14;;;;;;;20.13;12.27;;;;;;;13.22;43.81;98531.06;5082799;28;20043;-64
2021/10/31 09:32:44;;;;;;;14.77;10.23;;;;;;;13.28;43.96;98534.50;5062801;28;20039;-70
2021/10/31 09:35:15;;;;;;;14.88;9.43;;;;;;;13.33;44.23;98535.19;5063981;28;20955;-65
2021/10/31 09:37:41;;;;;;;15.80;9.15;;;;;;;13.40;44.32;98529.25;5082358;28;20027;-65
2021/10/31 09:40:07;;;;;;;15.00;9.43;;;;;;;13.49;42.68;98521.06;5081556;28;20423;-66
2021/10/31 09:42:33;;;;;;;12.68;8.55;;;;;;;13.55;43.18;98508.78;5080366;28;20032;-64
2021/10/31 09:44:59;;;;;;;12.77;8.35;;;;;;;13.59;43.05;98511.72;5079155;28;20032;-64
2021/10/31 09:47:25;;;;;;;15.75;8.85;;;;;;;13.64;44.06;98517.09;5080975;28;20033;-64
2021/10/31 09:49:52;;;;;;;12.68;7.35;;;;;;;13.68;43.93;98509.84;5081744;28;20028;-64
2021/10/31 09:52:18;;;;;;;22.33;11.63;;;;;;;13.74;43.28;98505.00;5078628;28;20055;-64
2021/10/31 09:54:46;;;;;;;19.77;10.45;;;;;;;13.82;43.96;98512.50;5081098;28;20024;-64
2021/10/31 09:57:11;;;;;;;18.40;9.13;;;;;;;13.88;43.95;98508.47;5079444;28;20036;-64
2021/10/31 09:59:42;;;;;;;11.38;7.10;;;;;;;13.93;44.28;98508.34;5080987;28;20077;-64
2021/10/31 10:04:36;;;;;;;18.38;9.80;;;;;;;14.08;44.07;98506.28;5081169;28;21067;-65
2021/10/31 10:07:05;;;;;;;12.02;6.90;;;;;;;14.15;43.93;98509.38;5079566;28;20028;-64
2021/10/31 10:09:32;;;;;;;9.13;6.45;;;;;;;14.21;42.77;98501.81;5079450;28;20512;-64
2021/10/31 10:12:00;;;;;;;11.52;7.25;;;;;;;14.30;43.53;98508.13;5080692;28;20483;-65
2021/10/31 10:14:29;;;;;;;8.68;6.00;;;;;;;14.37;42.91;98496.66;5080047;28;20032;-66
2021/10/31 10:17:03;;;;;;;22.75;12.35;;;;;;;14.43;41.89;98487.91;5079450;28;20024;-66
2021/10/31 10:19:32;;;;;;;19.38;11.32;;;;;;;14.48;41.81;98486.13;5080749;28;20444;-68
2021/10/31 10:22:10;;;;;;;22.37;13.60;;;;;;;14.57;42.17;98487.75;5068528;28;20025;-67
2021/10/31 10:24:40;;;;;;;21.73;12.55;;;;;;;14.61;42.31;98482.44;5056352;28;20017;-67
2021/10/31 10:27:08;;;;;;;12.57;6.70;;;;;;;14.66;41.23;98486.97;5054111;28;20298;-67
2021/10/31 10:29:39;;;;;;;9.32;6.05;;;;;;;14.68;42.15;98490.22;5063358;28;20048;-65
2021/10/31 10:32:07;;;;;;;11.57;6.00;;;;;;;14.72;42.07;98483.75;5062632;28;20024;-65
2021/10/31 10:34:50;;;;;;;11.50;6.55;;;;;;;14.79;42.55;98480.53;5062950;28;20036;-65
2021/10/31 10:37:20;;;;;;;11.68;6.70;;;;;;;14.85;42.46;98476.47;5062850;28;20036;-66
2021/10/31 10:39:52;;;;;;;10.40;6.35;;;;;;;14.92;42.54;98478.72;5049792;28;20043;-65
2021/10/31 10:42:22;;;;;;;11.85;6.82;;;;;;;15.00;42.38;98472.41;5062300;28;20031;-66
2021/10/31 10:44:49;;;;;;;9.57;6.43;;;;;;;15.08;41.46;98472.72;5066462;28;20158;-66
2021/10/31 10:47:21;;;;;;;9.20;6.30;;;;;;;15.12;41.45;98468.16;5072437;28;20024;-63
2021/10/31 10:49:47;;;;;;;9.55;6.68;;;;;;;15.18;42.18;98473.19;5081048;28;20524;-63
2021/10/31 10:52:26;;;;;;;11.00;6.70;;;;;;;15.24;42.39;98465.56;5081948;28;20367;-64
2021/10/31 10:55:13;;;;;;;10.95;6.15;;;;;;;15.29;40.59;98456.25;5081954;28;20081;-63
2021/10/31 10:57:49;;;;;;;10.63;6.57;;;;;;;15.33;40.87;98451.72;5082281;28;20024;-64
2021/10/31 11:00:23;;;;;;;10.23;6.60;;;;;;;15.36;40.68;98448.28;5081340;28;20094;-64
2021/10/31 11:03:00;;;;;;;11.32;6.22;;;;;;;15.40;40.23;98442.94;5080922;28;20081;-64
2021/10/31 11:05:28;;;;;;;10.73;5.80;;;;;;;15.44;40.80;98444.72;5072893;28;20028;-63
2021/10/31 11:07:54;;;;;;;8.10;5.93;;;;;;;15.47;40.50;98433.00;5072754;28;20119;-63
2021/10/31 11:10:26;;;;;;;10.40;6.10;;;;;;;15.54;40.47;98428.91;5079267;28;20034;-64
2021/10/31 11:12:54;;;;;;;9.27;6.15;;;;;;;15.60;40.15;98430.34;5080799;28;20539;-65
2021/10/31 11:15:26;;;;;;;11.77;5.65;;;;;;;15.62;39.33;98422.56;5082605;28;20055;-65
2021/10/31 11:17:54;;;;;;;9.23;6.40;;;;;;;15.67;39.22;98419.59;5082088;28;20024;-64
2021/10/31 11:20:26;;;;;;;9.73;6.40;;;;;;;15.69;39.24;98422.81;5069473;28;20021;-64
2021/10/31 11:22:55;;;;;;;8.32;6.63;;;;;;;15.74;38.76;98416.31;5081745;28;20055;-66
2021/10/31 11:25:22;;;;;;;11.05;6.68;;;;;;;15.77;38.90;98408.16;5076899;28;20038;-65
2021/10/31 11:27:50;;;;;;;12.18;6.47;;;;;;;15.82;39.52;98404.41;5072529;28;20031;-65
2021/10/31 11:30:17;;;;;;;11.73;6.15;;;;;;;15.88;39.01;98405.88;5064284;28;20044;-65